sensor_id;sensor_type;location;lat;lon;timestamp;pressure;altitude;pressure_sealevel;temperature;humidity
74627;BME280;63132;52.268;5.192;2022-12-18T00:01:01;102698.59;;;-4.13;99.01
74627;BME280;63132;52.268;5.192;2022-12-18T00:03:32;102688.94;;;-4.36;99.95
74627;BME280;63132;52.268;5.192;2022-12-18T00:05:57;102687.75;;;-4.13;99.37
74627;BME280;63132;52.268;5.192;2022-12-18T00:08:23;102707.66;;;-4.30;99.28
74627;BME280;63132;52.268;5.192;2022-12-18T00:10:48;102697.69;;;-4.24;100.00
74627;BME280;63132;52.268;5.192;2022-12-18T00:13:13;102691.72;;;-4.26;99.96
74627;BME280;63132;52.268;5.192;2022-12-18T00:15:39;102685.22;;;-4.30;100.00
74627;BME280;63132;52.268;5.192;2022-12-18T00:18:05;102687.47;;;-4.17;99.73
74627;BME280;63132;52.268;5.192;2022-12-18T00:20:31;102692.44;;;-4.04;98.66
74627;BME280;63132;52.268;5.192;2022-12-18T00:23:00;102692.25;;;-3.92;97.85
74627;BME280;63132;52.268;5.192;2022-12-18T00:25:25;102690.41;;;-3.81;97.43
74627;BME280;63132;52.268;5.192;2022-12-18T00:27:51;102695.06;;;-4.14;97.89
74627;BME280;63132;52.268;5.192;2022-12-18T00:30:16;102686.34;;;-4.21;98.75
74627;BME280;63132;52.268;5.192;2022-12-18T00:32:41;102694.75;;;-4.23;99.14
74627;BME280;63132;52.268;5.192;2022-12-18T00:35:07;102693.34;;;-4.25;98.65
74627;BME280;63132;52.268;5.192;2022-12-18T00:37:35;102699.88;;;-4.21;97.89
74627;BME280;63132;52.268;5.192;2022-12-18T00:40:01;102698.63;;;-4.40;99.84
74627;BME280;63132;52.268;5.192;2022-12-18T00:42:27;102691.72;;;-4.58;99.61
74627;BME280;63132;52.268;5.192;2022-12-18T00:45:11;102692.16;;;-4.39;100.00
74627;BME280;63132;52.268;5.192;2022-12-18T00:47:36;102698.72;;;-4.30;99.43
74627;BME280;63132;52.268;5.192;2022-12-18T00:50:02;102696.50;;;-4.65;99.16
74627;BME280;63132;52.268;5.192;2022-12-18T00:52:27;102692.59;;;-4.53;99.84
74627;BME280;63132;52.268;5.192;2022-12-18T00:54:53;102689.16;;;-4.70;99.09
74627;BME280;63132;52.268;5.192;2022-12-18T00:57:18;102693.38;;;-4.79;100.00
74627;BME280;63132;52.268;5.192;2022-12-18T00:59:43;102688.13;;;-4.64;100.00
74627;BME280;63132;52.268;5.192;2022-12-18T01:02:09;102682.63;;;-4.74;99.35
74627;BME280;63132;52.268;5.192;2022-12-18T01:04:34;102690.88;;;-4.86;100.00
74627;BME280;63132;52.268;5.192;2022-12-18T01:07:00;102683.50;;;-4.68;99.83
74627;BME280;63132;52.268;5.192;2022-12-18T01:09:25;102680.50;;;-4.72;98.39
74627;BME280;63132;52.268;5.192;2022-12-18T01:11:51;102690.84;;;-4.64;99.34
74627;BME280;63132;52.268;5.192;2022-12-18T01:14:16;102684.09;;;-4.88;98.04
74627;BME280;63132;52.268;5.192;2022-12-18T01:16:42;102690.69;;;-5.06;99.08
74627;BME280;63132;52.268;5.192;2022-12-18T01:19:07;102682.81;;;-5.08;99.78
74627;BME280;63132;52.268;5.192;2022-12-18T01:21:33;102683.66;;;-4.80;99.70
74627;BME280;63132;52.268;5.192;2022-12-18T01:23:58;102690.34;;;-5.10;98.64
74627;BME280;63132;52.268;5.192;2022-12-18T01:26:25;102691.06;;;-5.41;99.44
74627;BME280;63132;52.268;5.192;2022-12-18T01:28:51;102686.09;;;-5.27;99.56
74627;BME280;63132;52.268;5.192;2022-12-18T01:31:19;102696.19;;;-5.40;99.52
74627;BME280;63132;52.268;5.192;2022-12-18T01:33:45;102683.88;;;-5.52;99.71
74627;BME280;63132;52.268;5.192;2022-12-18T01:36:23;102702.03;;;-5.26;100.00
74627;BME280;63132;52.268;5.192;2022-12-18T01:38:49;102699.44;;;-5.38;99.95
74627;BME280;63132;52.268;5.192;2022-12-18T01:41:17;102702.16;;;-5.38;100.00
74627;BME280;63132;52.268;5.192;2022-12-18T01:43:50;102696.19;;;-5.40;100.00
74627;BME280;63132;52.268;5.192;2022-12-18T01:46:18;102689.44;;;-5.20;100.00
74627;BME280;63132;52.268;5.192;2022-12-18T01:48:46;102698.00;;;-5.02;99.68
74627;BME280;63132;52.268;5.192;2022-12-18T01:51:13;102696.19;;;-5.18;99.86
74627;BME280;63132;52.268;5.192;2022-12-18T01:53:40;102699.47;;;-5.16;100.00
74627;BME280;63132;52.268;5.192;2022-12-18T01:56:06;102708.88;;;-5.18;100.00
74627;BME280;63132;52.268;5.192;2022-12-18T02:01:04;102723.06;;;-5.50;99.77
74627;BME280;63132;52.268;5.192;2022-12-18T02:03:30;102728.28;;;-5.43;100.00
74627;BME280;63132;52.268;5.192;2022-12-18T02:06:26;102732.91;;;-5.39;100.00
74627;BME280;63132;52.268;5.192;2022-12-18T02:09:12;102727.56;;;-5.55;100.00
74627;BME280;63132;52.268;5.192;2022-12-18T02:17:10;102760.63;;;-5.26;100.00
74627;BME280;63132;52.268;5.192;2022-12-18T02:19:47;102754.41;;;-5.27;99.51
74627;BME280;63132;52.268;5.192;2022-12-18T02:27:50;102761.63;;;-5.33;99.29
74627;BME280;63132;52.268;5.192;2022-12-18T02:30:18;102750.91;;;-5.27;99.99
74627;BME280;63132;52.268;5.192;2022-12-18T02:32:48;102740.75;;;-5.37;98.96
74627;BME280;63132;52.268;5.192;2022-12-18T02:35:20;102736.94;;;-5.41;99.95
74627;BME280;63132;52.268;5.192;2022-12-18T02:37:47;102738.69;;;-5.30;99.29
74627;BME280;63132;52.268;5.192;2022-12-18T02:40:14;102727.69;;;-5.45;99.24
74627;BME280;63132;52.268;5.192;2022-12-18T02:42:40;102723.38;;;-5.46;98.40
74627;BME280;63132;52.268;5.192;2022-12-18T02:45:06;102710.44;;;-5.44;98.83
74627;BME280;63132;52.268;5.192;2022-12-18T02:47:36;102707.22;;;-5.63;98.81
74627;BME280;63132;52.268;5.192;2022-12-18T02:50:13;102701.66;;;-5.57;99.37
74627;BME280;63132;52.268;5.192;2022-12-18T03:00:33;102682.78;;;-5.95;99.62
74627;BME280;63132;52.268;5.192;2022-12-18T03:05:42;102689.00;;;-5.95;100.00
74627;BME280;63132;52.268;5.192;2022-12-18T03:08:23;102685.03;;;-5.87;100.00
74627;BME280;63132;52.268;5.192;2022-12-18T03:10:53;102685.41;;;-6.00;100.00
74627;BME280;63132;52.268;5.192;2022-12-18T03:13:26;102686.38;;;-6.06;100.00
74627;BME280;63132;52.268;5.192;2022-12-18T03:15:56;102682.94;;;-6.19;99.64
74627;BME280;63132;52.268;5.192;2022-12-18T03:18:30;102677.91;;;-6.32;99.89
74627;BME280;63132;52.268;5.192;2022-12-18T03:21:00;102668.09;;;-6.38;100.00
74627;BME280;63132;52.268;5.192;2022-12-18T03:23:38;102670.38;;;-6.47;100.00
74627;BME280;63132;52.268;5.192;2022-12-18T03:26:10;102666.88;;;-6.30;100.00
74627;BME280;63132;52.268;5.192;2022-12-18T03:28:45;102670.53;;;-6.53;100.00
74627;BME280;63132;52.268;5.192;2022-12-18T03:31:13;102668.63;;;-6.70;100.00
74627;BME280;63132;52.268;5.192;2022-12-18T03:33:52;102665.44;;;-6.66;100.00
74627;BME280;63132;52.268;5.192;2022-12-18T03:36:18;102660.00;;;-6.38;100.00
74627;BME280;63132;52.268;5.192;2022-12-18T03:38:44;102652.53;;;-6.64;100.00
74627;BME280;63132;52.268;5.192;2022-12-18T03:41:17;102656.50;;;-6.55;100.00
74627;BME280;63132;52.268;5.192;2022-12-18T03:50:13;102642.16;;;-6.56;100.00
74627;BME280;63132;52.268;5.192;2022-12-18T03:52:50;102635.31;;;-6.63;100.00
74627;BME280;63132;52.268;5.192;2022-12-18T03:55:18;102642.25;;;-6.67;100.00
74627;BME280;63132;52.268;5.192;2022-12-18T03:57:45;102642.41;;;-6.74;100.00
74627;BME280;63132;52.268;5.192;2022-12-18T04:00:14;102641.84;;;-6.76;100.00
74627;BME280;63132;52.268;5.192;2022-12-18T04:02:52;102635.75;;;-6.55;100.00
74627;BME280;63132;52.268;5.192;2022-12-18T04:05:19;102644.31;;;-6.41;100.00
74627;BME280;63132;52.268;5.192;2022-12-18T04:07:46;102635.00;;;-6.67;100.00
74627;BME280;63132;52.268;5.192;2022-12-18T04:10:13;102629.34;;;-6.65;100.00
74627;BME280;63132;52.268;5.192;2022-12-18T04:12:39;102615.47;;;-6.74;100.00
74627;BME280;63132;52.268;5.192;2022-12-18T04:15:06;102613.19;;;-6.65;100.00
74627;BME280;63132;52.268;5.192;2022-12-18T04:17:32;102614.41;;;-6.73;100.00
74627;BME280;63132;52.268;5.192;2022-12-18T04:19:57;102617.25;;;-6.80;100.00
74627;BME280;63132;52.268;5.192;2022-12-18T04:22:22;102608.09;;;-6.79;100.00
74627;BME280;63132;52.268;5.192;2022-12-18T04:24:48;102608.31;;;-6.68;100.00
74627;BME280;63132;52.268;5.192;2022-12-18T04:27:13;102613.28;;;-6.77;99.91
74627;BME280;63132;52.268;5.192;2022-12-18T04:29:39;102609.25;;;-6.91;100.00
74627;BME280;63132;52.268;5.192;2022-12-18T04:32:04;102613.50;;;-6.79;100.00
74627;BME280;63132;52.268;5.192;2022-12-18T04:34:30;102623.81;;;-6.59;100.00
74627;BME280;63132;52.268;5.192;2022-12-18T04:36:55;102617.66;;;-6.71;100.00
74627;BME280;63132;52.268;5.192;2022-12-18T04:39:21;102623.72;;;-6.81;100.00
74627;BME280;63132;52.268;5.192;2022-12-18T04:41:46;102621.69;;;-6.74;100.00
74627;BME280;63132;52.268;5.192;2022-12-18T04:44:12;102640.78;;;-6.75;100.00
74627;BME280;63132;52.268;5.192;2022-12-18T04:46:37;102632.53;;;-6.68;100.00
74627;BME280;63132;52.268;5.192;2022-12-18T04:49:02;102647.91;;;-6.69;99.97
74627;BME280;63132;52.268;5.192;2022-12-18T04:51:28;102650.50;;;-6.74;100.00
74627;BME280;63132;52.268;5.192;2022-12-18T04:53:53;102653.59;;;-6.82;100.00
74627;BME280;63132;52.268;5.192;2022-12-18T04:56:19;102654.28;;;-6.87;99.47
74627;BME280;63132;52.268;5.192;2022-12-18T04:58:44;102662.53;;;-7.22;99.53
74627;BME280;63132;52.268;5.192;2022-12-18T05:01:11;102664.03;;;-7.14;100.00
74627;BME280;63132;52.268;5.192;2022-12-18T05:03:37;102666.66;;;-7.03;100.00
74627;BME280;63132;52.268;5.192;2022-12-18T05:06:03;102660.34;;;-6.80;100.00
74627;BME280;63132;52.268;5.192;2022-12-18T05:08:29;102667.50;;;-6.85;100.00
74627;BME280;63132;52.268;5.192;2022-12-18T05:11:14;102670.84;;;-6.95;99.21
74627;BME280;63132;52.268;5.192;2022-12-18T05:13:41;102681.22;;;-6.87;99.31
74627;BME280;63132;52.268;5.192;2022-12-18T05:16:07;102687.78;;;-6.83;99.61
74627;BME280;63132;52.268;5.192;2022-12-18T05:18:33;102683.22;;;-6.82;99.17
74627;BME280;63132;52.268;5.192;2022-12-18T05:20:59;102679.69;;;-7.11;98.66
74627;BME280;63132;52.268;5.192;2022-12-18T05:23:25;102687.38;;;-7.03;99.55
74627;BME280;63132;52.268;5.192;2022-12-18T05:26:01;102694.03;;;-6.94;99.43
74627;BME280;63132;52.268;5.192;2022-12-18T05:28:29;102698.66;;;-7.18;98.68
74627;BME280;63132;52.268;5.192;2022-12-18T05:30:57;102697.97;;;-7.13;99.19
74627;BME280;63132;52.268;5.192;2022-12-18T05:33:24;102701.59;;;-7.19;99.63
74627;BME280;63132;52.268;5.192;2022-12-18T05:35:54;102692.38;;;-7.23;99.42
74627;BME280;63132;52.268;5.192;2022-12-18T05:38:20;102680.22;;;-7.26;99.92
74627;BME280;63132;52.268;5.192;2022-12-18T05:40:47;102675.59;;;-7.54;98.85
74627;BME280;63132;52.268;5.192;2022-12-18T05:43:13;102666.81;;;-7.49;99.81
74627;BME280;63132;52.268;5.192;2022-12-18T05:45:39;102671.41;;;-7.73;100.00
74627;BME280;63132;52.268;5.192;2022-12-18T05:48:06;102658.16;;;-7.51;100.00
74627;BME280;63132;52.268;5.192;2022-12-18T05:50:39;102660.81;;;-7.40;100.00
74627;BME280;63132;52.268;5.192;2022-12-18T05:53:05;102655.78;;;-7.36;100.00
74627;BME280;63132;52.268;5.192;2022-12-18T05:55:38;102655.00;;;-7.48;99.61
74627;BME280;63132;52.268;5.192;2022-12-18T05:58:04;102643.91;;;-7.52;100.00
74627;BME280;63132;52.268;5.192;2022-12-18T06:00:31;102644.22;;;-7.37;99.94
74627;BME280;63132;52.268;5.192;2022-12-18T06:02:57;102647.88;;;-7.55;99.50
74627;BME280;63132;52.268;5.192;2022-12-18T06:05:22;102653.66;;;-7.34;99.92
74627;BME280;63132;52.268;5.192;2022-12-18T06:07:48;102646.09;;;-7.37;99.13
74627;BME280;63132;52.268;5.192;2022-12-18T06:10:13;102643.06;;;-7.12;98.86
74627;BME280;63132;52.268;5.192;2022-12-18T06:12:39;102644.28;;;-7.32;99.22
74627;BME280;63132;52.268;5.192;2022-12-18T06:15:04;102642.78;;;-7.39;99.51
74627;BME280;63132;52.268;5.192;2022-12-18T06:17:31;102633.91;;;-7.40;99.00
74627;BME280;63132;52.268;5.192;2022-12-18T06:19:57;102636.38;;;-7.10;98.65
74627;BME280;63132;52.268;5.192;2022-12-18T06:22:22;102633.44;;;-7.37;98.84
74627;BME280;63132;52.268;5.192;2022-12-18T06:24:48;102634.72;;;-7.39;99.57
74627;BME280;63132;52.268;5.192;2022-12-18T06:27:13;102627.72;;;-7.40;98.79
74627;BME280;63132;52.268;5.192;2022-12-18T06:29:39;102628.09;;;-7.48;99.34
74627;BME280;63132;52.268;5.192;2022-12-18T06:32:04;102629.09;;;-7.66;99.67
74627;BME280;63132;52.268;5.192;2022-12-18T06:34:31;102620.53;;;-7.63;99.55
74627;BME280;63132;52.268;5.192;2022-12-18T06:36:57;102621.63;;;-7.36;100.00
74627;BME280;63132;52.268;5.192;2022-12-18T06:39:23;102613.56;;;-7.36;99.46
74627;BME280;63132;52.268;5.192;2022-12-18T06:41:48;102605.03;;;-7.44;98.97
74627;BME280;63132;52.268;5.192;2022-12-18T06:44:13;102602.09;;;-7.43;99.40
74627;BME280;63132;52.268;5.192;2022-12-18T06:46:39;102590.03;;;-7.40;99.07
74627;BME280;63132;52.268;5.192;2022-12-18T06:49:04;102595.16;;;-7.27;99.65
74627;BME280;63132;52.268;5.192;2022-12-18T06:51:29;102593.31;;;-7.38;99.20
74627;BME280;63132;52.268;5.192;2022-12-18T06:53:55;102591.91;;;-7.41;99.09
74627;BME280;63132;52.268;5.192;2022-12-18T06:56:20;102582.69;;;-7.45;98.35
74627;BME280;63132;52.268;5.192;2022-12-18T06:58:46;102594.75;;;-7.47;99.04
74627;BME280;63132;52.268;5.192;2022-12-18T07:01:12;102579.97;;;-7.45;99.24
74627;BME280;63132;52.268;5.192;2022-12-18T07:03:39;102575.94;;;-7.31;98.25
74627;BME280;63132;52.268;5.192;2022-12-18T07:06:05;102572.69;;;-7.33;98.63
74627;BME280;63132;52.268;5.192;2022-12-18T07:08:31;102568.56;;;-7.52;98.71
74627;BME280;63132;52.268;5.192;2022-12-18T07:10:57;102562.00;;;-7.44;98.38
74627;BME280;63132;52.268;5.192;2022-12-18T07:13:22;102576.03;;;-7.42;98.95
74627;BME280;63132;52.268;5.192;2022-12-18T07:15:48;102574.78;;;-7.63;99.26
74627;BME280;63132;52.268;5.192;2022-12-18T07:18:13;102569.00;;;-7.43;98.60
74627;BME280;63132;52.268;5.192;2022-12-18T07:20:39;102567.66;;;-7.58;98.71
74627;BME280;63132;52.268;5.192;2022-12-18T07:23:04;102562.00;;;-7.44;98.76
74627;BME280;63132;52.268;5.192;2022-12-18T07:25:33;102563.41;;;-7.54;98.89
74627;BME280;63132;52.268;5.192;2022-12-18T07:27:59;102568.09;;;-7.20;98.53
74627;BME280;63132;52.268;5.192;2022-12-18T07:30:24;102560.59;;;-7.47;97.48
74627;BME280;63132;52.268;5.192;2022-12-18T07:32:50;102559.06;;;-7.43;98.21
74627;BME280;63132;52.268;5.192;2022-12-18T07:35:15;102557.56;;;-7.50;98.22
74627;BME280;63132;52.268;5.192;2022-12-18T07:37:40;102557.03;;;-7.36;97.94
74627;BME280;63132;52.268;5.192;2022-12-18T07:40:06;102546.41;;;-7.42;97.63
74627;BME280;63132;52.268;5.192;2022-12-18T07:42:32;102541.88;;;-7.54;97.85
74627;BME280;63132;52.268;5.192;2022-12-18T07:44:58;102530.41;;;-7.49;97.79
74627;BME280;63132;52.268;5.192;2022-12-18T07:47:25;102525.28;;;-7.50;98.34
74627;BME280;63132;52.268;5.192;2022-12-18T07:49:50;102516.00;;;-7.43;98.55
74627;BME280;63132;52.268;5.192;2022-12-18T07:52:16;102515.25;;;-7.38;97.90
74627;BME280;63132;52.268;5.192;2022-12-18T07:54:41;102518.59;;;-7.48;98.46
74627;BME280;63132;52.268;5.192;2022-12-18T07:57:07;102513.84;;;-7.29;98.71
74627;BME280;63132;52.268;5.192;2022-12-18T07:59:33;102514.56;;;-7.34;97.73
74627;BME280;63132;52.268;5.192;2022-12-18T08:01:58;102507.25;;;-7.21;98.54
74627;BME280;63132;52.268;5.192;2022-12-18T08:04:24;102506.25;;;-7.15;98.50
74627;BME280;63132;52.268;5.192;2022-12-18T08:06:50;102502.66;;;-7.21;98.27
74627;BME280;63132;52.268;5.192;2022-12-18T08:09:15;102506.41;;;-7.22;98.15
74627;BME280;63132;52.268;5.192;2022-12-18T08:11:40;102497.19;;;-7.09;97.72
74627;BME280;63132;52.268;5.192;2022-12-18T08:14:06;102509.34;;;-7.23;98.71
74627;BME280;63132;52.268;5.192;2022-12-18T08:16:31;102506.59;;;-6.95;98.76
74627;BME280;63132;52.268;5.192;2022-12-18T08:18:57;102513.84;;;-6.95;98.42
74627;BME280;63132;52.268;5.192;2022-12-18T08:21:28;102524.97;;;-6.92;98.26
74627;BME280;63132;52.268;5.192;2022-12-18T08:23:55;102532.22;;;-6.92;98.18
74627;BME280;63132;52.268;5.192;2022-12-18T08:26:21;102543.00;;;-6.92;98.14
74627;BME280;63132;52.268;5.192;2022-12-18T08:28:47;102541.03;;;-6.97;99.02
74627;BME280;63132;52.268;5.192;2022-12-18T08:31:12;102551.28;;;-6.94;98.58
74627;BME280;63132;52.268;5.192;2022-12-18T08:33:39;102539.81;;;-6.89;98.19
74627;BME280;63132;52.268;5.192;2022-12-18T08:36:05;102538.41;;;-6.58;98.39
74627;BME280;63132;52.268;5.192;2022-12-18T08:38:32;102541.50;;;-6.66;97.45
74627;BME280;63132;52.268;5.192;2022-12-18T08:41:03;102531.47;;;-6.88;98.26
74627;BME280;63132;52.268;5.192;2022-12-18T08:43:29;102528.47;;;-6.75;97.34
74627;BME280;63132;52.268;5.192;2022-12-18T08:46:12;102534.66;;;-6.74;97.81
74627;BME280;63132;52.268;5.192;2022-12-18T08:48:38;102530.41;;;-6.53;97.75
74627;BME280;63132;52.268;5.192;2022-12-18T08:51:03;102527.19;;;-6.50;97.34
74627;BME280;63132;52.268;5.192;2022-12-18T08:53:28;102530.13;;;-6.35;96.85
74627;BME280;63132;52.268;5.192;2022-12-18T08:55:56;102537.09;;;-6.39;97.75
74627;BME280;63132;52.268;5.192;2022-12-18T08:58:21;102539.09;;;-6.29;96.67
74627;BME280;63132;52.268;5.192;2022-12-18T09:00:46;102538.38;;;-6.42;97.07
74627;BME280;63132;52.268;5.192;2022-12-18T09:03:13;102542.47;;;-6.39;97.50
74627;BME280;63132;52.268;5.192;2022-12-18T09:05:39;102523.13;;;-6.14;97.06
74627;BME280;63132;52.268;5.192;2022-12-18T09:08:05;102516.56;;;-6.01;97.10
74627;BME280;63132;52.268;5.192;2022-12-18T09:10:31;102505.88;;;-5.91;96.66
74627;BME280;63132;52.268;5.192;2022-12-18T09:12:57;102507.59;;;-6.07;96.80
74627;BME280;63132;52.268;5.192;2022-12-18T09:15:22;102516.84;;;-5.98;96.34
74627;BME280;63132;52.268;5.192;2022-12-18T09:17:47;102527.06;;;-5.78;96.12
74627;BME280;63132;52.268;5.192;2022-12-18T09:20:15;102521.94;;;-5.74;95.64
74627;BME280;63132;52.268;5.192;2022-12-18T09:22:41;102511.38;;;-5.81;96.66
74627;BME280;63132;52.268;5.192;2022-12-18T09:25:06;102515.44;;;-5.78;95.98
74627;BME280;63132;52.268;5.192;2022-12-18T09:27:33;102520.56;;;-5.55;95.89
74627;BME280;63132;52.268;5.192;2022-12-18T09:29:59;102505.38;;;-5.61;96.16
74627;BME280;63132;52.268;5.192;2022-12-18T09:32:24;102506.41;;;-5.40;95.27
74627;BME280;63132;52.268;5.192;2022-12-18T09:34:49;102501.91;;;-5.30;94.52
74627;BME280;63132;52.268;5.192;2022-12-18T09:37:15;102495.41;;;-5.34;94.29
74627;BME280;63132;52.268;5.192;2022-12-18T09:39:40;102498.19;;;-5.23;95.98
74627;BME280;63132;52.268;5.192;2022-12-18T09:42:06;102507.56;;;-5.04;95.54
74627;BME280;63132;52.268;5.192;2022-12-18T09:44:41;102490.81;;;-5.01;95.57
74627;BME280;63132;52.268;5.192;2022-12-18T09:47:28;102493.94;;;-5.14;94.83
74627;BME280;63132;52.268;5.192;2022-12-18T09:50:06;102491.06;;;-5.03;95.73
74627;BME280;63132;52.268;5.192;2022-12-18T09:52:48;102489.25;;;-4.97;94.77
74627;BME280;63132;52.268;5.192;2022-12-18T09:55:23;102479.72;;;-5.05;95.98
74627;BME280;63132;52.268;5.192;2022-12-18T09:57:54;102480.38;;;-4.87;95.31
74627;BME280;63132;52.268;5.192;2022-12-18T10:00:22;102477.50;;;-4.76;95.11
74627;BME280;63132;52.268;5.192;2022-12-18T10:02:50;102472.25;;;-4.50;95.03
74627;BME280;63132;52.268;5.192;2022-12-18T10:05:22;102479.72;;;-4.62;94.25
74627;BME280;63132;52.268;5.192;2022-12-18T10:24:39;102468.03;;;-4.31;94.59
74627;BME280;63132;52.268;5.192;2022-12-18T10:27:18;102465.97;;;-4.03;95.24
74627;BME280;63132;52.268;5.192;2022-12-18T10:29:45;102470.88;;;-4.00;92.32
74627;BME280;63132;52.268;5.192;2022-12-18T10:32:17;102448.94;;;-4.09;93.19
74627;BME280;63132;52.268;5.192;2022-12-18T10:34:49;102462.22;;;-3.97;92.67
74627;BME280;63132;52.268;5.192;2022-12-18T10:37:17;102472.56;;;-3.79;93.38
74627;BME280;63132;52.268;5.192;2022-12-18T10:39:43;102462.03;;;-3.60;91.79
74627;BME280;63132;52.268;5.192;2022-12-18T10:42:19;102451.16;;;-3.85;93.31
74627;BME280;63132;52.268;5.192;2022-12-18T10:44:44;102451.97;;;-3.85;94.23
74627;BME280;63132;52.268;5.192;2022-12-18T10:47:18;102458.81;;;-3.57;94.10
74627;BME280;63132;52.268;5.192;2022-12-18T10:49:52;102454.22;;;-3.56;92.16
74627;BME280;63132;52.268;5.192;2022-12-18T10:52:25;102445.81;;;-3.55;91.56
74627;BME280;63132;52.268;5.192;2022-12-18T10:55:02;102438.78;;;-3.56;92.56
74627;BME280;63132;52.268;5.192;2022-12-18T10:57:39;102437.16;;;-3.26;90.52
74627;BME280;63132;52.268;5.192;2022-12-18T11:00:27;102427.41;;;-3.12;91.89
74627;BME280;63132;52.268;5.192;2022-12-18T11:02:54;102416.56;;;-3.32;91.32
74627;BME280;63132;52.268;5.192;2022-12-18T11:05:29;102409.53;;;-3.23;90.79
74627;BME280;63132;52.268;5.192;2022-12-18T11:07:56;102406.28;;;-3.20;90.00
74627;BME280;63132;52.268;5.192;2022-12-18T11:10:26;102413.31;;;-3.04;89.41
74627;BME280;63132;52.268;5.192;2022-12-18T11:12:53;102411.44;;;-3.19;89.99
74627;BME280;63132;52.268;5.192;2022-12-18T11:15:21;102408.44;;;-3.22;91.33
74627;BME280;63132;52.268;5.192;2022-12-18T11:17:49;102409.50;;;-2.88;90.48
74627;BME280;63132;52.268;5.192;2022-12-18T11:20:32;102395.44;;;-3.05;90.77
74627;BME280;63132;52.268;5.192;2022-12-18T11:23:01;102389.16;;;-3.00;89.59
74627;BME280;63132;52.268;5.192;2022-12-18T11:25:28;102386.72;;;-2.92;91.05
74627;BME280;63132;52.268;5.192;2022-12-18T11:27:59;102396.19;;;-2.79;90.75
74627;BME280;63132;52.268;5.192;2022-12-18T11:30:34;102390.19;;;-2.71;88.44
74627;BME280;63132;52.268;5.192;2022-12-18T11:33:04;102395.38;;;-2.74;90.94
74627;BME280;63132;52.268;5.192;2022-12-18T11:38:12;102392.59;;;-2.59;88.67
74627;BME280;63132;52.268;5.192;2022-12-18T11:40:42;102390.88;;;-2.35;87.89
74627;BME280;63132;52.268;5.192;2022-12-18T11:43:19;102395.78;;;-2.42;87.58
74627;BME280;63132;52.268;5.192;2022-12-18T11:45:54;102396.94;;;-2.58;88.82
74627;BME280;63132;52.268;5.192;2022-12-18T11:48:37;102392.03;;;-2.51;88.24
74627;BME280;63132;52.268;5.192;2022-12-18T11:51:12;102386.84;;;-2.47;87.30
74627;BME280;63132;52.268;5.192;2022-12-18T11:53:39;102375.19;;;-2.43;89.32
74627;BME280;63132;52.268;5.192;2022-12-18T11:59:16;102353.91;;;-2.20;86.34
74627;BME280;63132;52.268;5.192;2022-12-18T12:01:51;102348.59;;;-2.46;86.48
74627;BME280;63132;52.268;5.192;2022-12-18T12:07:21;102323.47;;;-2.17;86.64
74627;BME280;63132;52.268;5.192;2022-12-18T12:18:36;102314.50;;;-2.08;87.47
74627;BME280;63132;52.268;5.192;2022-12-18T12:21:20;102313.75;;;-2.24;87.04
74627;BME280;63132;52.268;5.192;2022-12-18T12:23:58;102308.78;;;-2.11;87.35
74627;BME280;63132;52.268;5.192;2022-12-18T12:26:34;102308.31;;;-1.50;85.54
74627;BME280;63132;52.268;5.192;2022-12-18T12:29:23;102301.66;;;-1.63;84.95
74627;BME280;63132;52.268;5.192;2022-12-18T12:32:17;102299.38;;;-1.85;84.49
74627;BME280;63132;52.268;5.192;2022-12-18T12:35:28;102293.81;;;-2.04;85.23
74627;BME280;63132;52.268;5.192;2022-12-18T12:38:04;102279.84;;;-1.87;86.21
74627;BME280;63132;52.268;5.192;2022-12-18T12:40:35;102281.72;;;-1.82;85.92
74627;BME280;63132;52.268;5.192;2022-12-18T12:43:12;102281.81;;;-1.92;85.74
74627;BME280;63132;52.268;5.192;2022-12-18T12:46:00;102273.25;;;-1.47;84.55
74627;BME280;63132;52.268;5.192;2022-12-18T12:51:20;102265.91;;;-2.09;86.06
74627;BME280;63132;52.268;5.192;2022-12-18T12:53:47;102270.81;;;-2.11;87.23
74627;BME280;63132;52.268;5.192;2022-12-18T12:56:14;102271.53;;;-1.67;85.22
74627;BME280;63132;52.268;5.192;2022-12-18T13:06:27;102255.47;;;-1.92;84.75
74627;BME280;63132;52.268;5.192;2022-12-18T13:09:01;102245.94;;;-1.89;85.10
74627;BME280;63132;52.268;5.192;2022-12-18T13:11:44;102260.09;;;-1.92;84.75
74627;BME280;63132;52.268;5.192;2022-12-18T13:14:34;102264.75;;;-1.69;84.88
74627;BME280;63132;52.268;5.192;2022-12-18T13:17:30;102258.69;;;-1.90;85.61
74627;BME280;63132;52.268;5.192;2022-12-18T13:20:03;102257.09;;;-1.91;85.44
74627;BME280;63132;52.268;5.192;2022-12-18T13:22:38;102249.16;;;-1.87;84.31
74627;BME280;63132;52.268;5.192;2022-12-18T13:30:41;102234.75;;;-1.83;83.28
74627;BME280;63132;52.268;5.192;2022-12-18T13:35:40;102232.16;;;-1.98;87.42
74627;BME280;63132;52.268;5.192;2022-12-18T13:46:21;102186.53;;;-1.96;85.22
74627;BME280;63132;52.268;5.192;2022-12-18T13:48:54;102177.84;;;-1.93;84.87
74627;BME280;63132;52.268;5.192;2022-12-18T13:51:20;102177.47;;;-1.86;85.24
74627;BME280;63132;52.268;5.192;2022-12-18T13:53:51;102178.88;;;-1.89;83.89
74627;BME280;63132;52.268;5.192;2022-12-18T13:56:20;102175.34;;;-1.89;85.38
74627;BME280;63132;52.268;5.192;2022-12-18T13:58:46;102180.06;;;-2.00;84.72
74627;BME280;63132;52.268;5.192;2022-12-18T14:01:28;102175.19;;;-2.03;84.81
74627;BME280;63132;52.268;5.192;2022-12-18T14:04:09;102176.09;;;-2.13;85.74
74627;BME280;63132;52.268;5.192;2022-12-18T14:06:35;102175.69;;;-1.72;85.62
74627;BME280;63132;52.268;5.192;2022-12-18T14:09:02;102177.03;;;-1.93;85.22
74627;BME280;63132;52.268;5.192;2022-12-18T14:11:27;102171.88;;;-1.95;85.90
74627;BME280;63132;52.268;5.192;2022-12-18T14:13:53;102170.22;;;-1.91;86.92
74627;BME280;63132;52.268;5.192;2022-12-18T14:16:18;102173.47;;;-1.94;85.36
74627;BME280;63132;52.268;5.192;2022-12-18T14:21:18;102166.97;;;-1.93;86.52
74627;BME280;63132;52.268;5.192;2022-12-18T14:23:44;102157.72;;;-1.92;85.05
74627;BME280;63132;52.268;5.192;2022-12-18T14:26:22;102146.53;;;-1.61;85.78
74627;BME280;63132;52.268;5.192;2022-12-18T14:28:48;102149.03;;;-1.41;84.22
74627;BME280;63132;52.268;5.192;2022-12-18T14:31:22;102146.75;;;-1.82;85.00